Latest Coastal Weather Observations for Walpole North

IDW60701

Issued at 8:55 am WST Thursday 28 August 2014 (issued every 10 minutes, with the page automatically refreshed every 10 minutes)

About coastal observations | Map of coastal stations | Coastal observations for WA | Marine services | Other Formats
Station Details ID: 009998 Name: NORTH WALPOLE Lat: -34.95 Lon: 116.72 Height: 73.0 m
Data from the previous 72 hours. | See also: Recent months at Walpole North
Date/Time
WST
Temp

°C
Wind Pressure Rain
since 9am
mm
Weather Cloud Vis
km
Sea
Height
m
Swell
Dir
 
Speed
knots
Gust
knots
hPa Trend Height
m
Period
s
Dir
28/08:30am 16.3 NNW 14 26 1012.5 - 0.2 - - - - - - -
28/08:00am 16.0 N 12 18 1012.2 - 0.2 - - - - - - -
28/07:30am 15.4 N 10 18 1012.2 - 0.2 - - - - - - -
28/07:00am 15.2 NNW 10 17 1012.1 - 0.2 - - - - - - -
28/06:30am 15.0 N 10 17 1011.9 - 0.2 - - - - - - -
28/06:00am 14.5 N 10 16 1011.9 - 0.2 Recent precip. - - - - - -
28/05:30am 13.8 N 8 18 1012.0 - 0.2 - - - - - - -
28/05:00am 14.0 N 8 14 1012.6 - 0.0 - - - - - - -
28/04:30am 14.4 NNW 11 16 1012.4 - 0.0 - - - - - - -
28/04:00am 14.3 NNW 8 17 1012.4 - 0.0 - - - - - - -
28/03:30am 14.3 N 10 15 1012.5 - 0.0 - - - - - - -
28/03:00am 14.0 N 9 15 1012.9 - 0.0 - - - - - - -
28/02:30am 13.9 N 7 11 1013.2 - 0.0 - - - - - - -
28/02:00am 14.2 NNW 8 14 1013.7 - 0.0 - - - - - - -
28/01:30am 14.0 NNW 9 17 1014.0 - 0.0 - - - - - - -
28/01:00am 14.0 NNW 7 13 1014.5 - 0.0 - - - - - - -
28/12:30am 13.9 NW 10 15 1015.0 - 0.0 - - - - - - -
28/12:00am 13.9 NW 11 16 1015.4 - 0.0 - - - - - - -
 
Date/Time
WST
Temp

°C
Wind Pressure Rain
since 9am
mm
Weather Cloud Vis
km
Sea
Height
m
Swell
Dir
 
Speed
knots
Gust
knots
hPa Trend Height
m
Period
s
Dir
27/11:30pm 14.2 NW 13 17 1015.6 - 0.0 - - - - - - -
27/11:00pm 14.3 NW 14 20 1016.0 - 0.0 - - - - - - -
27/10:30pm 14.5 NW 17 22 1016.1 - 0.0 - - - - - - -
27/10:00pm 14.6 NW 14 19 1016.2 - 0.0 - - - - - - -
27/09:30pm 14.5 NW 11 17 1016.2 - 0.0 - - - - - - -
27/09:00pm 14.5 NNW 9 16 1016.4 - 0.0 - - - - - - -
27/08:30pm 14.7 N 7 11 1016.4 - 0.0 - - - - - - -
27/08:00pm 15.2 N 8 14 1016.4 - 0.0 - - - - - - -
27/07:30pm 14.9 N 5 8 1016.4 - 0.0 - - - - - - -
27/07:00pm 15.2 NNW 7 11 1016.6 - 0.0 - - - - - - -
27/06:30pm 14.7 N 4 6 1016.4 - 0.0 - - - - - - -
27/06:00pm 15.0 NNW 6 8 1016.7 - 0.0 - - - - - - -
27/05:30pm 14.1 NW 3 4 1016.8 - 0.0 - - - - - - -
27/05:00pm 15.5 NNW 5 6 1016.8 - 0.0 - - - - - - -
27/04:30pm 16.6 NNW 5 7 1016.7 - 0.0 - - - - - - -
27/04:00pm 16.4 NW 7 11 1016.7 - 0.0 - - - - - - -
27/03:30pm 17.5 WNW 8 14 1016.6 - 0.0 - - - - - - -
27/03:00pm 17.4 WNW 8 12 1016.9 - 0.0 - - - - - - -
27/02:30pm 16.5 NW 9 15 1016.9 - 0.0 - - - - - - -
27/02:00pm 16.8 NW 8 16 1016.5 - 0.0 - - - - - - -
27/01:30pm 16.9 N 8 12 1016.5 - 0.0 - - - - - - -
27/01:00pm 17.0 NNW 10 15 1017.3 - 0.0 - - - - - - -
27/12:30pm 16.3 N 8 16 1018.1 - 0.0 - - - - - - -
27/12:00pm 15.5 NNW 8 11 1019.1 - 0.0 - - - - - - -
27/11:30am 14.4 N 7 11 1019.8 - 0.0 - - - - - - -
27/11:00am 13.4 N 7 11 1020.2 - 0.0 - - - - - - -
27/10:30am 13.0 N 6 13 1020.4 - 0.0 - - - - - - -
27/10:00am 13.0 N 5 11 1020.6 - 0.0 - - - - - - -
27/09:30am 12.7 NE 9 14 1020.5 - 0.0 - - - - - - -
27/09:00am 12.0 NE 11 16 1020.7 - 0.2 - - - - - - -
27/08:30am 11.9 NE 11 17 1020.8 - 0.2 - - - - - - -
27/08:00am 11.6 NE 9 15 1020.9 - 0.2 - - - - - - -
27/07:30am 11.4 NE 9 14 1021.0 - 0.2 - - - - - - -
27/07:00am 11.0 NE 9 14 1020.9 - 0.2 - - - - - - -
27/06:30am 10.7 NE 9 13 1020.9 - 0.2 - - - - - - -
27/06:00am 10.8 NE 9 14 1021.2 - 0.2 - - - - - - -
27/05:30am 10.3 NNE 7 11 1021.4 - 0.2 - - - - - - -
27/05:00am 10.3 NNE 6 10 1021.5 - 0.2 - - - - - - -
27/04:30am 10.2 NE 8 12 1021.5 - 0.2 - - - - - - -
27/04:00am 10.1 NE 7 10 1021.6 - 0.2 - - - - - - -
27/03:30am 10.0 NE 7 11 1022.0 - 0.2 - - - - - - -
27/03:00am 9.9 NE 6 10 1022.3 - 0.2 - - - - - - -
27/02:30am 10.0 NE 5 7 1022.7 - 0.2 - - - - - - -
27/02:00am 9.2 NE 5 7 1022.9 - 0.2 - - - - - - -
27/01:30am 9.3 NE 6 9 1022.9 - 0.2 - - - - - - -
27/01:00am 8.0 NE 1 5 1023.2 - 0.2 - - - - - - -
27/12:30am 7.8 CALM 0 0 1023.5 - 0.2 - - - - - - -
27/12:00am 7.6 CALM 0 0 1023.7 - 0.2 - - - - - - -
 
Date/Time
WST
Temp

°C
Wind Pressure Rain
since 9am
mm
Weather Cloud Vis
km
Sea
Height
m
Swell
Dir
 
Speed
knots
Gust
knots
hPa Trend Height
m
Period
s
Dir
26/11:30pm 7.1 CALM 0 0 1023.9 - 0.2 - - - - - - -
26/11:00pm 7.2 NE 4 6 1023.9 - 0.2 - - - - - - -
26/10:30pm 7.0 CALM 0 0 1024.1 - 0.2 - - - - - - -
26/10:00pm 7.3 CALM 0 0 1024.2 - 0.2 - - - - - - -
26/09:30pm 7.2 CALM 0 0 1024.4 - 0.2 - - - - - - -
26/09:00pm 7.4 CALM 0 0 1024.6 - 0.2 - - - - - - -
26/08:30pm 8.1 CALM 0 0 1024.6 - 0.2 - - - - - - -
26/08:00pm 9.0 CALM 0 0 1024.4 - 0.2 - - - - - - -
26/07:30pm 9.4 CALM 0 0 1024.3 - 0.2 - - - - - - -
26/07:00pm 9.7 CALM 0 0 1024.2 - 0.2 - - - - - - -
26/06:30pm 9.8 CALM 0 0 1024.0 - 0.2 - - - - - - -
26/06:00pm 10.6 CALM 0 0 1023.9 - 0.2 - - - - - - -
26/05:30pm 11.7 SSW 4 6 1023.9 - 0.2 - - - - - - -
26/05:00pm 12.8 SW 4 6 1023.8 - 0.2 - - - - - - -
26/04:30pm 13.9 SSW 6 9 1023.6 - 0.2 - - - - - - -
26/04:00pm 14.4 SW 5 11 1023.4 - 0.2 - - - - - - -
26/03:30pm 15.4 WSW 4 7 1023.0 - 0.2 - - - - - - -
26/03:00pm 15.5 WSW 6 10 1023.0 - 0.2 - - - - - - -
26/02:30pm 15.6 SW 5 9 1022.8 - 0.2 - - - - - - -
26/02:00pm 15.2 SSW 7 11 1023.0 - 0.2 - - - - - - -
26/01:30pm 15.2 WSW 7 11 1022.9 - 0.2 - - - - - - -
26/01:00pm 15.5 SW 7 11 1022.9 - 0.2 - - - - - - -
26/12:30pm 15.2 SW 7 10 1023.1 - 0.2 - - - - - - -
26/12:00pm 14.7 SW 8 13 1023.3 - 0.2 Recent precip. - - - - - -
26/11:30am 14.9 SW 8 12 1023.3 - 0.2 - - - - - - -
26/11:00am 13.6 SW 8 11 1023.3 - 0.0 - - - - - - -
26/10:30am 14.3 SW 9 15 1023.2 - 0.0 - - - - - - -
26/10:00am 13.6 WSW 9 16 1023.0 - 0.0 - - - - - - -
26/09:30am 14.0 WSW 8 15 1022.6 - 0.0 - - - - - - -
26/09:00am 13.0 WSW 5 8 1022.4 - 14.8 - - - - - - -
26/08:30am 12.1 WSW 5 10 1022.1 - 14.8 - - - - - - -
26/08:00am 11.6 W 4 8 1021.6 - 14.8 - - - - - - -
26/07:30am 11.3 W 3 5 1020.9 - 14.8 - - - - - - -
26/07:00am 11.1 WNW 5 6 1020.5 - 14.8 - - - - - - -
26/06:30am 11.5 W 7 11 1020.1 - 14.6 - - - - - - -
26/06:00am 11.8 WSW 5 8 1019.7 - 14.6 Recent precip. - - - - - -
26/05:30am 11.8 WSW 7 10 1019.0 - 14.4 - - - - - - -
26/05:00am 12.2 W 6 8 1018.4 - 14.0 - - - - - - -
26/04:30am 12.3 W 8 13 1017.7 - 13.4 - - - - - - -
26/04:00am 12.4 W 12 18 1017.2 - 11.2 - - - - - - -
26/03:30am 13.2 WNW 9 13 1016.7 - 8.2 - - - - - - -
26/03:00am 13.2 NW 7 11 1016.3 - 7.8 Rain - - - - - -
26/02:30am 13.2 W 12 19 1016.1 - 6.8 - - - - - - -
26/02:00am 14.6 NW 12 18 1015.5 - 5.8 - - - - - - -
26/01:30am 14.4 NW 13 21 1015.2 - 5.8 - - - - - - -
26/01:00am 14.4 NW 11 17 1015.3 - 5.8 - - - - - - -
26/12:30am 14.8 WNW 14 22 1015.3 - 5.6 - - - - - - -
26/12:00am 15.8 WNW 9 15 1015.0 - 3.2 Recent precip. - - - - - -
 
Date/Time
WST
Temp

°C
Wind Pressure Rain
since 9am
mm
Weather Cloud Vis
km
Sea
Height
m
Swell
Dir
 
Speed
knots
Gust
knots
hPa Trend Height
m
Period
s
Dir
25/11:30pm 16.0 NW 15 21 1014.8 - 3.2 - - - - - - -
25/11:00pm 17.8 NW 17 29 1014.6 - 1.6 - - - - - - -
25/10:56pm 17.9 NNW 15 29 1014.5 - 1.6 - - - - - - -
25/10:30pm 17.7 NNW 11 20 1014.4 - 1.6 - - - - - - -
25/10:00pm 17.7 N 10 20 1014.6 - 1.6 - - - - - - -
25/09:30pm 17.6 NNW 10 19 1014.9 - 1.6 - - - - - - -
25/09:00pm 17.7 N 10 18 1015.3 - 1.6 - - - - - - -
25/08:30pm 17.8 NNW 12 19 1015.5 - 1.6 - - - - - - -
25/08:00pm 17.9 NNW 12 22 1015.6 - 1.6 - - - - - - -
25/07:30pm 17.9 NNW 13 23 1015.5 - 1.6 - - - - - - -
25/07:00pm 18.1 NNW 13 22 1015.4 - 1.6 - - - - - - -
25/06:30pm 18.0 NNW 13 19 1015.0 - 1.6 - - - - - - -
25/06:00pm 18.2 NNW 13 21 1015.0 - 1.6 - - - - - - -
25/05:30pm 18.6 NNW 12 19 1015.0 - 1.6 - - - - - - -
25/05:00pm 18.7 N 11 22 1014.9 - 1.6 - - - - - - -
25/04:30pm 18.4 NNW 11 20 1015.1 - 1.6 - - - - - - -
25/04:00pm 18.3 NNW 11 17 1015.1 - 1.6 - - - - - - -
25/03:30pm 18.0 N 9 15 1015.6 - 1.4 - - - - - - -
25/03:00pm 17.5 N 9 15 1015.6 - 1.4 Recent precip. - - - - - -
25/02:30pm 17.6 WNW 11 15 1016.0 - 1.0 - - - - - - -
25/02:00pm 18.9 W 9 11 1015.9 - 0.0 - - - - - - -
25/01:30pm 20.4 NNW 11 15 1015.3 - 0.0 - - - - - - -
25/01:00pm 19.7 W 7 8 1015.8 - 0.0 - - - - - - -
25/12:30pm 18.6 NW 12 16 1016.4 - 0.0 - - - - - - -
25/12:01pm 18.9 NW 17 27 1017.3 - 0.0 - - - - - - -
25/12:00pm 19.0 NW 18 27 1017.3 - 0.0 - - - - - - -
25/11:54am 19.8 NW 15 25 1017.2 - 0.0 - - - - - - -
25/11:30am 21.0 NNW 11 17 1016.9 - 0.0 - - - - - - -
25/11:00am 20.9 NNW 14 22 1016.9 - 0.0 - - - - - - -
25/10:30am 20.8 NW 13 19 1017.1 - 0.0 - - - - - - -
25/10:12am 20.0 NNW 15 25 1017.2 - 0.0 - - - - - - -
25/10:00am 20.0 NNW 13 21 1017.5 - 0.0 - - - - - - -
25/09:30am 18.9 NNW 12 19 1017.8 - 0.0 - - - - - - -
25/09:00am 18.1 NNW 11 19 1017.9 - 0.0 - - - - - - -

Other Formats:

Comma delimited format used in spreadsheet applications
http://www.bom.gov.au/fwo/IDW60701/IDW60701.95647.axf

JavaScript Object Notation format (JSON) in row-major order
http://www.bom.gov.au/fwo/IDW60701/IDW60701.95647.json